Time;durP1;ratioP1;P1;durP2;ratioP2;P2;SDS_P1;SDS_P2;PMS_P1;PMS_P2;Temp;Humidity;BMP_temperature;BMP_pressure;BME280_temperature;BME280_humidity;BME280_pressure;Samples;Min_cycle;Max_cycle;Signal;HPM_P1;HPM_P2
2023/03/12 00:01:59;;;;;;;9.20;4.90;;;-0.10;99.90;;;;;;4975730;28;20051;-71
2023/03/12 00:04:26;;;;;;;11.30;4.85;;;-0.10;99.90;;;;;;4963576;28;20302;-73
2023/03/12 00:06:51;;;;;;;11.80;5.22;;;-0.20;99.90;;;;;;4963273;28;20329;-72
2023/03/12 00:09:17;;;;;;;10.70;5.20;;;-0.20;99.90;;;;;;4961972;28;20043;-73
2023/03/12 00:11:43;;;;;;;12.38;5.20;;;-0.20;99.90;;;;;;4963053;28;20131;-72
2023/03/12 00:14:08;;;;;;;10.38;5.25;;;-0.20;99.90;;;;;;4943301;28;20098;-70
2023/03/12 00:16:34;;;;;;;10.43;5.53;;;-0.30;99.90;;;;;;4963411;28;20332;-72
2023/03/12 00:19:00;;;;;;;11.95;4.82;;;-0.30;99.90;;;;;;4954923;29;20318;-69
2023/03/12 00:21:26;;;;;;;10.93;5.72;;;-0.30;99.90;;;;;;4957913;28;20257;-70
2023/03/12 00:23:52;;;;;;;11.55;5.10;;;-0.30;99.90;;;;;;4963153;28;20210;-69
2023/03/12 00:26:19;;;;;;;11.00;5.05;;;-0.30;99.90;;;;;;4962006;28;20035;-72
2023/03/12 00:28:48;;;;;;;9.88;4.70;;;-0.30;99.90;;;;;;4950382;28;20309;-70
2023/03/12 06:02:11;;;;;;;9.23;5.20;;;1.70;99.90;;;;;;5626900;23;20089;-70
2023/03/12 06:04:37;;;;;;;8.68;4.60;;;1.80;99.90;;;;;;4966822;28;20105;-72
2023/03/12 06:07:04;;;;;;;12.77;5.68;;;1.80;99.90;;;;;;4967490;28;20027;-74
2023/03/12 06:09:31;;;;;;;11.07;5.28;;;1.90;99.90;;;;;;4951060;28;20038;-70
2023/03/12 06:11:57;;;;;;;10.48;5.32;;;1.80;99.90;;;;;;4984992;28;20039;-71
2023/03/12 06:14:23;;;;;;;10.45;5.50;;;1.90;99.90;;;;;;4967055;28;20198;-74
2023/03/12 06:16:49;;;;;;;10.65;5.47;;;1.90;99.90;;;;;;4983563;28;20026;-71
2023/03/12 06:19:15;;;;;;;12.32;5.75;;;1.90;99.90;;;;;;4984503;28;20069;-70
2023/03/12 06:21:43;;;;;;;9.68;5.18;;;1.80;99.90;;;;;;4983056;28;20027;-71
2023/03/12 06:24:09;;;;;;;10.60;6.40;;;1.80;99.90;;;;;;4967042;28;20030;-71
2023/03/12 06:26:46;;;;;;;12.50;6.13;;;1.70;99.90;;;;;;4966723;28;20038;-71
2023/03/12 06:29:11;;;;;;;12.57;6.35;;;1.60;99.90;;;;;;4984549;28;20204;-72
2023/03/12 06:31:38;;;;;;;14.07;6.57;;;1.60;99.90;;;;;;4983953;28;20097;-73
2023/03/12 06:34:04;;;;;;;10.60;6.00;;;1.50;99.90;;;;;;4984028;28;20039;-71
2023/03/12 06:36:33;;;;;;;11.50;5.93;;;1.50;99.90;;;;;;4983992;28;20105;-72
2023/03/12 06:38:58;;;;;;;12.05;5.53;;;1.60;99.90;;;;;;4984439;28;20033;-72
2023/03/12 06:41:24;;;;;;;10.68;5.65;;;1.60;99.90;;;;;;4983822;28;20046;-71
2023/03/12 06:43:50;;;;;;;10.55;5.80;;;1.60;99.90;;;;;;4966983;28;20045;-72
2023/03/12 06:46:20;;;;;;;17.77;6.72;;;1.60;99.90;;;;;;4982538;28;20105;-71
2023/03/12 06:48:46;;;;;;;11.27;5.65;;;1.60;99.90;;;;;;4983142;28;20027;-73
2023/03/12 06:51:15;;;;;;;13.10;6.15;;;1.60;99.90;;;;;;4984027;28;20062;-71
2023/03/12 06:53:41;;;;;;;10.77;5.75;;;1.70;99.90;;;;;;4983622;28;20260;-72
2023/03/12 06:56:07;;;;;;;9.60;5.70;;;1.80;99.90;;;;;;4984158;28;20031;-74
2023/03/12 06:58:33;;;;;;;12.38;6.47;;;1.90;99.90;;;;;;4970720;28;20102;-71
2023/03/12 07:00:59;;;;;;;12.45;6.38;;;2.00;99.90;;;;;;4998004;28;20042;-71
2023/03/12 07:03:25;;;;;;;9.35;5.30;;;2.20;99.90;;;;;;4968523;28;20066;-73
2023/03/12 07:05:51;;;;;;;11.27;5.63;;;2.30;99.90;;;;;;4966887;28;20031;-74
2023/03/12 07:08:17;;;;;;;9.07;5.75;;;2.40;99.90;;;;;;4972435;28;20358;-70
2023/03/12 07:10:44;;;;;;;9.45;5.40;;;2.40;99.90;;;;;;4953926;29;20114;-71
2023/03/12 07:13:10;;;;;;;9.60;5.65;;;2.50;99.90;;;;;;4969847;28;20081;-76
2023/03/12 07:15:35;;;;;;;8.60;5.63;;;2.60;99.90;;;;;;4971334;28;20244;-72
2023/03/12 07:18:10;;;;;;;9.13;5.70;;;2.60;99.90;;;;;;4947118;29;20032;-72
2023/03/12 07:20:38;;;;;;;10.63;6.93;;;2.70;99.90;;;;;;4963565;28;20031;-71
2023/03/12 07:23:04;;;;;;;;;;;2.70;99.90;;;;;;4964366;28;20074;-72
2023/03/12 07:25:30;;;;;;;8.48;5.22;;;2.80;99.90;;;;;;4963558;28;19907;-74
2023/03/12 07:27:56;;;;;;;10.95;5.25;;;2.80;99.90;;;;;;4964213;28;20245;-73
2023/03/12 07:30:22;;;;;;;13.52;5.68;;;2.90;99.90;;;;;;4954127;29;20039;-72
2023/03/12 07:32:48;;;;;;;11.10;5.72;;;3.00;99.90;;;;;;4963268;28;20043;-75
2023/03/12 07:35:13;;;;;;;10.32;5.43;;;3.00;99.90;;;;;;4964080;28;20086;-74
2023/03/12 07:37:39;;;;;;;10.88;5.47;;;3.10;99.90;;;;;;4963245;28;20081;-72
2023/03/12 07:40:09;;;;;;;11.57;5.45;;;3.20;99.90;;;;;;4964081;28;20031;-72
2023/03/12 07:42:35;;;;;;;8.25;5.20;;;3.20;99.90;;;;;;4954666;28;20050;-72
2023/03/12 07:45:00;;;;;;;8.07;4.65;;;3.30;99.90;;;;;;4963553;28;20039;-72
2023/03/12 07:47:26;;;;;;;8.57;5.35;;;3.50;99.90;;;;;;4963925;28;20067;-72
2023/03/12 07:49:52;;;;;;;8.60;4.88;;;3.50;99.90;;;;;;4970715;28;20083;-73
2023/03/12 07:52:19;;;;;;;9.23;5.03;;;3.80;99.90;;;;;;4957282;28;20094;-71
2023/03/12 07:54:45;;;;;;;8.20;4.30;;;4.10;99.90;;;;;;4962817;28;20340;-74
2023/03/12 07:57:10;;;;;;;8.23;4.75;;;4.20;99.90;;;;;;4963596;28;20039;-72
2023/03/12 07:59:36;;;;;;;7.75;4.63;;;4.40;99.90;;;;;;4963245;28;20202;-73
2023/03/12 08:02:02;;;;;;;10.30;4.15;;;4.50;99.90;;;;;;4963236;28;20224;-72
2023/03/12 08:04:27;;;;;;;9.07;4.28;;;4.70;99.90;;;;;;4963187;28;20209;-75
2023/03/12 08:06:53;;;;;;;8.80;4.05;;;4.90;99.90;;;;;;4963149;28;20094;-72
2023/03/12 08:09:19;;;;;;;7.43;4.32;;;5.20;99.90;;;;;;4963402;28;20038;-73
2023/03/12 08:11:45;;;;;;;7.97;4.70;;;5.20;99.90;;;;;;4966652;28;20038;-72
2023/03/12 08:14:10;;;;;;;9.98;4.78;;;5.10;99.90;;;;;;4977485;28;20050;-72
2023/03/12 08:16:39;;;;;;;7.85;4.47;;;5.00;99.90;;;;;;4962642;28;20297;-73
2023/03/12 08:19:05;;;;;;;11.30;6.88;;;5.00;99.90;;;;;;4967377;28;20090;-72
2023/03/12 08:21:30;;;;;;;10.18;4.88;;;4.90;99.90;;;;;;4966225;28;20063;-72
2023/03/12 08:23:56;;;;;;;10.88;4.90;;;4.90;99.90;;;;;;4967280;28;20179;-72
2023/03/12 08:26:22;;;;;;;7.22;5.13;;;4.80;99.90;;;;;;4967311;28;20122;-74
2023/03/12 08:28:47;;;;;;;9.18;4.72;;;4.70;99.90;;;;;;4949625;29;20091;-72
2023/03/12 08:31:13;;;;;;;8.55;4.57;;;4.60;99.90;;;;;;4966424;28;20027;-70
2023/03/12 08:33:42;;;;;;;9.38;5.35;;;4.60;99.90;;;;;;4967203;28;20039;-72
2023/03/12 08:36:09;;;;;;;10.48;5.57;;;4.30;99.90;;;;;;4966822;28;20094;-75
2023/03/12 08:38:34;;;;;;;11.48;4.50;;;4.20;99.90;;;;;;4966324;28;20035;-72
2023/03/12 08:41:00;;;;;;;9.68;5.43;;;4.30;99.90;;;;;;4966468;28;20098;-73
2023/03/12 08:43:27;;;;;;;13.55;5.93;;;4.40;99.90;;;;;;4949720;29;20098;-70
2023/03/12 08:45:58;;;;;;;9.82;5.95;;;4.50;99.90;;;;;;4966409;28;20035;-71
2023/03/12 08:48:24;;;;;;;10.48;5.15;;;4.70;99.90;;;;;;4965111;28;20035;-73
2023/03/12 08:50:50;;;;;;;9.35;5.28;;;4.90;99.90;;;;;;4964523;28;20047;-74
2023/03/12 08:53:16;;;;;;;10.05;5.65;;;5.10;99.90;;;;;;4966328;28;20364;-73
2023/03/12 08:55:42;;;;;;;7.55;5.07;;;5.30;99.90;;;;;;4949297;29;20104;-73
2023/03/12 08:58:08;;;;;;;11.52;5.47;;;5.40;99.90;;;;;;4957619;28;20031;-74
2023/03/12 09:00:34;;;;;;;11.00;4.93;;;5.50;99.90;;;;;;4965721;28;20035;-71
2023/03/12 09:03:02;;;;;;;9.57;5.10;;;5.60;99.90;;;;;;4966470;28;20086;-77
2023/03/12 09:05:34;;;;;;;8.00;5.10;;;5.70;99.90;;;;;;4933030;29;20209;-76
2023/03/12 09:08:00;;;;;;;11.23;5.30;;;5.50;99.90;;;;;;4966180;28;20031;-76
2023/03/12 09:10:26;;;;;;;9.80;5.53;;;5.40;99.90;;;;;;4933314;29;20054;-74
2023/03/12 09:12:53;;;;;;;10.13;6.03;;;5.30;99.90;;;;;;4965719;28;20047;-77
2023/03/12 09:15:46;;;;;;;10.55;6.28;;;5.20;99.90;;;;;;4966182;28;20280;-77
2023/03/12 09:18:11;;;;;;;9.98;5.88;;;5.10;99.90;;;;;;4966028;28;20031;-75
2023/03/12 09:20:37;;;;;;;9.95;5.82;;;5.20;99.90;;;;;;4965412;28;20077;-75
2023/03/12 09:23:03;;;;;;;11.60;6.95;;;5.20;99.90;;;;;;4965786;28;20103;-75
2023/03/12 09:25:28;;;;;;;11.18;6.32;;;5.20;99.90;;;;;;4948265;29;20035;-73
2023/03/12 09:27:54;;;;;;;11.95;6.32;;;5.40;99.90;;;;;;4965689;28;20313;-72
2023/03/12 09:30:23;;;;;;;15.50;6.40;;;5.60;99.90;;;;;;4965589;28;20031;-74
2023/03/12 09:32:49;;;;;;;15.30;7.32;;;5.80;99.90;;;;;;4946467;28;20035;-76
2023/03/12 09:35:15;;;;;;;19.65;10.48;;;5.90;99.90;;;;;;4961324;28;20108;-74
2023/03/12 09:37:41;;;;;;;12.18;7.00;;;6.10;99.90;;;;;;4954315;28;20366;-76
2023/03/12 09:40:10;;;;;;;13.55;6.90;;;6.30;99.90;;;;;;4954367;28;20089;-74
2023/03/12 09:42:51;;;;;;;12.15;7.25;;;6.40;99.90;;;;;;4959876;28;20035;-73
2023/03/12 09:45:24;;;;;;;13.63;7.07;;;6.50;99.90;;;;;;4953477;28;20037;-74
2023/03/12 09:47:52;;;;;;;10.57;6.55;;;6.60;99.90;;;;;;4965009;28;20102;-73
2023/03/12 09:50:42;;;;;;;12.52;6.60;;;6.80;99.90;;;;;;4963601;28;20315;-73
2023/03/12 09:53:32;;;;;;;11.80;6.65;;;7.20;99.90;;;;;;4984854;28;20034;-72
2023/03/12 09:56:01;;;;;;;10.32;5.55;;;7.40;99.90;;;;;;4985052;28;20034;-74
2023/03/12 09:58:33;;;;;;;8.07;5.72;;;7.50;99.90;;;;;;4984421;28;20039;-73
2023/03/12 10:01:19;;;;;;;10.93;5.90;;;7.70;99.90;;;;;;4984581;28;20053;-71
2023/03/12 10:04:06;;;;;;;10.20;5.65;;;7.90;99.90;;;;;;4983927;28;20258;-74
2023/03/12 10:06:55;;;;;;;9.35;6.05;;;8.30;99.90;;;;;;4983497;28;20134;-71
2023/03/12 10:09:46;;;;;;;9.70;5.57;;;8.40;99.90;;;;;;4973996;28;20395;-71
2023/03/12 10:12:50;;;;;;;11.40;7.32;;;8.70;99.90;;;;;;4973343;28;20124;-70
2023/03/12 10:15:46;;;;;;;10.27;6.30;;;8.90;99.90;;;;;;4979557;28;20158;-71
2023/03/12 10:18:17;;;;;;;8.13;5.47;;;9.10;99.90;;;;;;4982925;28;20118;-72
2023/03/12 10:21:01;;;;;;;9.00;5.22;;;9.10;99.90;;;;;;4983784;28;20026;-73
2023/03/12 10:23:38;;;;;;;8.90;5.53;;;9.30;99.90;;;;;;4984123;28;20046;-74
2023/03/12 10:26:15;;;;;;;8.27;5.53;;;9.50;99.90;;;;;;4984260;28;20034;-71
2023/03/12 10:28:50;;;;;;;9.63;5.50;;;9.60;99.90;;;;;;4982985;28;20035;-71
2023/03/12 10:31:26;;;;;;;8.35;5.68;;;9.50;99.90;;;;;;4984511;28;20038;-71
2023/03/12 10:33:56;;;;;;;9.20;5.22;;;9.30;99.90;;;;;;4983151;28;20229;-71
2023/03/12 10:36:34;;;;;;;7.82;5.78;;;9.50;99.90;;;;;;4984410;28;20042;-71
2023/03/12 10:39:00;;;;;;;8.20;5.63;;;9.70;99.90;;;;;;4984129;28;20089;-70
2023/03/12 10:41:29;;;;;;;10.73;6.97;;;9.80;99.90;;;;;;4984321;28;20050;-69
2023/03/12 10:44:02;;;;;;;9.18;5.55;;;10.00;99.90;;;;;;4983765;28;20039;-73
2023/03/12 10:46:36;;;;;;;9.45;5.53;;;10.10;99.90;;;;;;4984305;28;20034;-71
2023/03/12 10:49:20;;;;;;;8.63;5.30;;;10.00;99.90;;;;;;4983940;28;20030;-71
2023/03/12 10:52:04;;;;;;;7.97;5.20;;;10.00;99.90;;;;;;4983788;28;20340;-73
2023/03/12 10:54:36;;;;;;;9.38;5.75;;;9.80;99.90;;;;;;4984237;28;20043;-70
2023/03/12 10:57:02;;;;;;;9.05;5.20;;;9.80;99.90;;;;;;4964486;28;20083;-72
2023/03/12 10:59:32;;;;;;;5.90;3.28;;;9.80;99.90;;;;;;4985460;28;20031;-73
2023/03/12 11:01:58;;;;;;;7.63;3.58;;;9.80;99.90;;;;;;4983766;28;20165;-72
2023/03/12 11:04:31;;;;;;;5.55;3.00;;;9.80;99.90;;;;;;4984425;28;20303;-70
2023/03/12 11:07:15;;;;;;;3.92;1.80;;;10.00;99.90;;;;;;4983502;28;20042;-71
2023/03/12 11:09:41;;;;;;;3.80;1.55;;;10.20;99.90;;;;;;4983128;28;20209;-73
2023/03/12 11:12:29;;;;;;;3.58;1.13;;;10.30;99.90;;;;;;4983895;28;20034;-73
2023/03/12 11:14:56;;;;;;;3.35;1.10;;;10.50;99.90;;;;;;4995863;28;20330;-73
2023/03/12 11:17:28;;;;;;;4.20;1.17;;;10.60;99.90;;;;;;4983407;28;20061;-71
2023/03/12 11:19:53;;;;;;;2.42;1.02;;;10.90;99.90;;;;;;4983000;28;20395;-72
2023/03/12 11:22:40;;;;;;;2.83;1.02;;;11.00;99.90;;;;;;4963304;28;20035;-75
2023/03/12 11:25:18;;;;;;;3.80;1.30;;;11.20;99.90;;;;;;4965996;28;20027;-71
2023/03/12 11:27:49;;;;;;;4.63;1.33;;;11.70;99.90;;;;;;4983342;28;20038;-70
2023/03/12 11:30:22;;;;;;;3.65;1.40;;;12.00;99.90;;;;;;4983650;28;20070;-71
2023/03/12 11:32:49;;;;;;;3.88;1.20;;;12.10;99.90;;;;;;4982820;28;20236;-72
2023/03/12 11:35:18;;;;;;;1.83;0.82;;;12.30;99.90;;;;;;4983282;28;20054;-73
2023/03/12 11:38:10;;;;;;;2.40;0.90;;;12.50;99.90;;;;;;4982777;28;20057;-71
2023/03/12 11:40:49;;;;;;;2.35;0.70;;;13.10;99.90;;;;;;4983326;28;20400;-71
2023/03/12 11:43:24;;;;;;;3.38;0.57;;;13.40;99.90;;;;;;4983403;28;20042;-70
2023/03/12 11:46:02;;;;;;;2.53;0.95;;;13.10;99.90;;;;;;4965688;28;20312;-70
2023/03/12 11:48:50;;;;;;;2.63;0.73;;;13.10;99.90;;;;;;4983143;28;20073;-74
2023/03/12 11:51:34;;;;;;;1.30;0.40;;;12.90;99.90;;;;;;4983197;28;20331;-70
2023/03/12 11:54:24;;;;;;;1.75;0.50;;;12.90;99.90;;;;;;4982551;28;20030;-73
2023/03/12 11:56:58;;;;;;;2.45;0.70;;;12.60;99.90;;;;;;4979211;28;20130;-72
2023/03/12 11:59:48;;;;;;;0.93;0.40;;;12.60;99.90;;;;;;4973469;28;20277;-73
2023/03/12 12:02:51;;;;;;;3.63;0.63;;;12.70;99.90;;;;;;4982995;28;20074;-70
2023/03/12 12:05:38;;;;;;;2.78;0.47;;;13.00;99.90;;;;;;4983468;28;20042;-72
2023/03/12 12:08:41;;;;;;;3.07;0.70;;;13.00;99.90;;;;;;4983175;28;20070;-72
2023/03/12 12:11:30;;;;;;;0.93;0.40;;;13.30;99.90;;;;;;4965489;28;20486;-74
2023/03/12 12:14:05;;;;;;;1.60;0.50;;;13.30;99.90;;;;;;4982573;28;20033;-72
2023/03/12 12:16:46;;;;;;;1.55;0.45;;;13.10;99.90;;;;;;4983032;28;20038;-75
2023/03/12 12:19:30;;;;;;;1.77;0.43;;;13.10;99.90;;;;;;4983089;28;20038;-74
2023/03/12 12:22:20;;;;;;;3.05;0.55;;;13.30;99.90;;;;;;4981367;28;20069;-73
2023/03/12 12:24:46;;;;;;;1.67;0.50;;;13.50;99.90;;;;;;4979150;28;20055;-70
2023/03/12 12:27:16;;;;;;;2.25;0.50;;;13.80;99.90;;;;;;4982776;28;20046;-73
2023/03/12 12:29:56;;;;;;;2.00;0.50;;;13.80;99.90;;;;;;4982297;28;20034;-72
2023/03/12 12:32:50;;;;;;;1.75;0.40;;;13.50;99.90;;;;;;4982581;28;20047;-73
2023/03/12 12:35:32;;;;;;;1.88;0.38;;;13.70;99.90;;;;;;4970255;28;20192;-73
2023/03/12 12:38:09;;;;;;;2.60;0.60;;;14.40;99.60;;;;;;4982421;28;20035;-74
2023/03/12 12:40:42;;;;;;;1.95;0.55;;;14.10;99.70;;;;;;4982910;28;20091;-73
2023/03/12 12:43:29;;;;;;;1.50;0.50;;;14.00;99.80;;;;;;4982943;28;20042;-72
2023/03/12 12:46:05;;;;;;;5.45;0.77;;;14.10;99.10;;;;;;4982515;28;20033;-73
2023/03/12 12:48:34;;;;;;;1.45;0.38;;;14.00;99.40;;;;;;4982920;28;20058;-72
2023/03/12 12:51:02;;;;;;;2.85;0.68;;;14.10;99.00;;;;;;4981174;28;20090;-73
2023/03/12 12:53:50;;;;;;;4.05;0.85;;;14.10;99.40;;;;;;4982451;28;20019;-72
2023/03/12 12:56:44;;;;;;;2.20;0.40;;;14.60;98.30;;;;;;4983251;28;20031;-71
2023/03/12 12:59:39;;;;;;;3.20;0.70;;;14.80;98.00;;;;;;4985852;28;20034;-74
2023/03/12 13:02:16;;;;;;;2.90;0.50;;;14.90;96.90;;;;;;4985195;28;20129;-71
2023/03/12 13:04:43;;;;;;;2.47;0.50;;;14.90;96.70;;;;;;4985150;28;20058;-73
2023/03/12 13:07:11;;;;;;;3.20;0.57;;;14.40;97.00;;;;;;4985714;28;20061;-74
2023/03/12 13:09:45;;;;;;;6.60;1.27;;;14.00;97.80;;;;;;4986008;28;20019;-73
2023/03/12 13:12:42;;;;;;;2.05;0.70;;;13.80;98.00;;;;;;4986178;28;20232;-73
2023/03/12 13:15:27;;;;;;;2.42;0.88;;;13.50;98.60;;;;;;4985738;28;20054;-73
2023/03/12 13:17:55;;;;;;;3.75;1.02;;;13.30;99.00;;;;;;4985350;28;20034;-73
2023/03/12 13:20:35;;;;;;;4.00;0.90;;;13.30;99.50;;;;;;4985540;28;20042;-71
2023/03/12 13:23:20;;;;;;;2.88;0.77;;;13.20;99.60;;;;;;4971180;28;20038;-73
2023/03/12 13:25:57;;;;;;;4.40;0.98;;;13.20;99.60;;;;;;4985092;28;20035;-72
2023/03/12 13:28:29;;;;;;;4.85;1.00;;;13.40;99.70;;;;;;4985618;28;20034;-73
2023/03/12 13:30:58;;;;;;;5.85;0.98;;;13.50;99.40;;;;;;4983912;28;20041;-71
2023/03/12 13:33:47;;;;;;;3.97;0.70;;;13.50;99.10;;;;;;4985277;28;20045;-70
2023/03/12 13:36:15;;;;;;;6.20;1.65;;;13.30;98.00;;;;;;4985035;28;20030;-72
2023/03/12 13:39:17;;;;;;;5.07;1.02;;;13.00;98.70;;;;;;4985241;28;20332;-78
2023/03/12 13:41:48;;;;;;;4.25;0.80;;;13.00;98.90;;;;;;4985513;28;20094;-73
2023/03/12 13:44:26;;;;;;;5.07;1.02;;;13.30;98.70;;;;;;4985438;28;20062;-72
2023/03/12 13:46:58;;;;;;;2.77;0.80;;;14.40;96.80;;;;;;4983775;28;20039;-71
2023/03/12 13:49:25;;;;;;;6.10;1.17;;;14.60;95.80;;;;;;4985200;28;20041;-69
2023/03/12 13:52:08;;;;;;;3.65;1.00;;;14.40;96.00;;;;;;4984834;28;20041;-70
2023/03/12 13:54:40;;;;;;;3.38;0.60;;;14.80;95.80;;;;;;4985386;28;20069;-74
2023/03/12 13:57:39;;;;;;;4.93;0.90;;;15.70;94.30;;;;;;4984510;28;20042;-71
2023/03/12 14:00:25;;;;;;;5.00;0.85;;;16.90;92.30;;;;;;4963150;28;20046;-73
2023/03/12 14:03:00;;;;;;;3.50;0.80;;;17.00;91.40;;;;;;4983857;28;20344;-73
2023/03/12 14:05:27;;;;;;;3.50;0.80;;;16.00;92.50;;;;;;4984772;28;20054;-71
2023/03/12 14:08:21;;;;;;;2.92;0.90;;;15.60;93.10;;;;;;4983475;28;20047;-71
2023/03/12 14:11:19;;;;;;;3.05;0.90;;;15.80;93.20;;;;;;4984511;28;20065;-71
2023/03/12 14:14:05;;;;;;;4.93;1.10;;;16.00;92.50;;;;;;4972156;28;20049;-72
2023/03/12 14:16:49;;;;;;;3.83;1.27;;;15.80;92.60;;;;;;4984672;28;20220;-71
2023/03/12 14:19:23;;;;;;;3.47;0.90;;;15.30;93.10;;;;;;4984613;28;20054;-71
2023/03/12 14:21:50;;;;;;;5.55;0.85;;;14.70;93.60;;;;;;4972351;28;20041;-71
2023/03/12 14:24:35;;;;;;;4.57;1.10;;;14.30;94.30;;;;;;4983383;28;20034;-71
2023/03/12 14:27:03;;;;;;;3.72;0.88;;;14.00;95.10;;;;;;4984094;28;20120;-69
2023/03/12 14:29:42;;;;;;;5.00;1.00;;;13.90;95.60;;;;;;4984340;28;20019;-70
2023/03/12 14:32:19;;;;;;;6.95;1.00;;;13.80;96.80;;;;;;4983774;28;20047;-75
2023/03/12 14:34:56;;;;;;;4.25;1.10;;;13.70;97.30;;;;;;4983233;28;20027;-70
2023/03/12 14:38:14;;;;;;;6.25;0.98;;;13.60;97.60;;;;;;4984109;28;20033;-74
2023/03/12 14:41:02;;;;;;;6.45;0.90;;;13.50;96.80;;;;;;4941065;28;20070;-73
2023/03/12 14:43:33;;;;;;;3.92;0.90;;;13.60;96.40;;;;;;4984249;28;20388;-74
2023/03/12 14:46:04;;;;;;;5.13;1.10;;;14.20;96.20;;;;;;4983728;28;20030;-71
2023/03/12 14:48:32;;;;;;;3.75;1.10;;;14.40;95.30;;;;;;4983861;28;20026;-72
2023/03/12 14:51:00;;;;;;;5.18;1.10;;;15.10;94.40;;;;;;4982367;28;20194;-71
2023/03/12 14:53:31;;;;;;;4.53;1.25;;;16.60;92.80;;;;;;4984126;28;20049;-71
2023/03/12 14:56:10;;;;;;;3.78;1.17;;;18.40;89.10;;;;;;4996937;28;20027;-72
2023/03/12 14:58:47;;;;;;;3.20;0.70;;;19.20;85.30;;;;;;4993491;28;20099;-71
2023/03/12 15:01:17;;;;;;;4.28;1.00;;;19.70;81.70;;;;;;4983507;28;20053;-70
2023/03/12 15:04:00;;;;;;;2.92;0.93;;;19.20;79.20;;;;;;4984660;28;20051;-72
2023/03/12 15:06:34;;;;;;;4.82;0.70;;;19.10;79.70;;;;;;4988759;28;20037;-70
2023/03/12 15:09:03;;;;;;;3.30;0.90;;;19.70;77.40;;;;;;4983527;28;20042;-69
2023/03/12 15:11:31;;;;;;;4.57;0.90;;;20.30;75.70;;;;;;4978792;28;20027;-70
2023/03/12 15:14:06;;;;;;;3.03;0.70;;;20.60;75.60;;;;;;4993534;28;20034;-71
2023/03/12 15:16:33;;;;;;;3.60;0.82;;;20.80;72.80;;;;;;4993891;28;20041;-70
2023/03/12 15:19:00;;;;;;;3.13;0.73;;;21.20;73.20;;;;;;4987735;28;20097;-74
2023/03/12 15:21:26;;;;;;;2.88;0.65;;;21.00;73.20;;;;;;4976505;28;20023;-69
2023/03/12 15:23:52;;;;;;;3.38;0.95;;;21.00;73.40;;;;;;4979731;28;20031;-71
2023/03/12 15:26:18;;;;;;;3.78;1.10;;;20.60;74.40;;;;;;4983513;28;20041;-73
2023/03/12 15:29:02;;;;;;;3.35;0.70;;;19.90;74.00;;;;;;4983592;28;20304;-70
2023/03/12 15:31:46;;;;;;;3.97;0.98;;;18.70;77.80;;;;;;4983529;28;20034;-71
2023/03/12 15:34:25;;;;;;;5.13;1.02;;;17.30;81.20;;;;;;4982315;28;20069;-71
2023/03/12 15:36:53;;;;;;;3.28;0.75;;;16.20;84.10;;;;;;4983557;28;20066;-72
2023/03/12 15:39:32;;;;;;;5.35;1.30;;;15.80;85.00;;;;;;4966053;28;20037;-71
2023/03/12 15:42:14;;;;;;;4.72;1.20;;;15.20;86.60;;;;;;4983043;28;20027;-70
2023/03/12 15:44:47;;;;;;;5.30;1.13;;;14.70;87.90;;;;;;4983424;28;20042;-71
2023/03/12 15:47:25;;;;;;;5.20;1.48;;;14.40;89.30;;;;;;4982863;28;20102;-71
2023/03/12 15:49:58;;;;;;;6.60;1.48;;;14.30;90.10;;;;;;4982732;28;20121;-72
2023/03/12 15:52:28;;;;;;;3.80;1.00;;;14.20;90.10;;;;;;4982893;28;20308;-71
2023/03/12 15:55:12;;;;;;;5.78;1.30;;;14.00;90.10;;;;;;4982474;28;20105;-72
2023/03/12 15:57:57;;;;;;;7.75;1.27;;;13.90;90.30;;;;;;4982854;28;20034;-71
2023/03/12 16:00:29;;;;;;;5.03;1.05;;;13.70;90.70;;;;;;4982762;28;20034;-71
2023/03/12 16:02:57;;;;;;;6.05;1.10;;;13.50;91.20;;;;;;4982032;28;20058;-71
2023/03/12 16:05:29;;;;;;;6.70;1.88;;;13.40;91.50;;;;;;4982872;28;20031;-72
2023/03/12 16:07:56;;;;;;;6.88;1.40;;;13.40;91.60;;;;;;4982809;28;20043;-69
2023/03/12 16:10:25;;;;;;;8.07;1.52;;;13.40;91.60;;;;;;4982577;28;20062;-72
2023/03/12 16:13:00;;;;;;;7.63;1.30;;;13.40;91.40;;;;;;4981900;28;20042;-72
2023/03/12 16:15:30;;;;;;;5.60;1.73;;;13.30;91.50;;;;;;4982716;28;20035;-72
2023/03/12 16:17:56;;;;;;;10.45;1.50;;;13.30;91.70;;;;;;4982404;28;20055;-71
2023/03/12 16:20:21;;;;;;;4.53;1.88;;;13.20;91.60;;;;;;4982739;28;20037;-70
2023/03/12 16:22:47;;;;;;;7.25;1.85;;;13.20;91.80;;;;;;4982648;28;20314;-72
2023/03/12 16:25:13;;;;;;;5.78;1.48;;;13.20;91.70;;;;;;4982486;28;20030;-71
2023/03/12 16:27:51;;;;;;;6.55;1.40;;;13.20;91.60;;;;;;4982414;28;20039;-69
2023/03/12 16:30:23;;;;;;;8.63;2.10;;;13.10;91.70;;;;;;4982106;28;20089;-71
2023/03/12 16:32:48;;;;;;;8.98;1.70;;;13.10;91.70;;;;;;4986512;28;20110;-72
2023/03/12 16:35:17;;;;;;;6.50;1.48;;;13.00;91.70;;;;;;4985955;28;20289;-72
2023/03/12 16:37:43;;;;;;;10.23;1.30;;;12.90;91.70;;;;;;4973022;28;20043;-71
2023/03/12 16:40:11;;;;;;;9.75;3.60;;;13.00;91.70;;;;;;4986055;28;20128;-72
2023/03/12 16:42:38;;;;;;;7.82;2.17;;;12.90;91.80;;;;;;4986439;28;20062;-71
2023/03/12 16:45:08;;;;;;;8.38;1.60;;;12.90;91.60;;;;;;4985672;28;20038;-70
2023/03/12 16:47:34;;;;;;;6.85;1.60;;;12.90;91.60;;;;;;4986204;28;20030;-72
2023/03/12 16:49:59;;;;;;;6.40;1.55;;;12.90;91.80;;;;;;4986115;28;20034;-72
2023/03/12 16:52:25;;;;;;;6.55;1.77;;;12.80;91.70;;;;;;4986066;28;20038;-70
2023/03/12 16:54:51;;;;;;;9.05;2.15;;;12.90;91.70;;;;;;4986343;28;20121;-71
2023/03/12 16:57:31;;;;;;;7.68;1.67;;;12.80;91.70;;;;;;4985530;28;20027;-70
2023/03/12 16:59:58;;;;;;;12.13;2.28;;;12.80;91.60;;;;;;4985728;28;20308;-69
2023/03/12 17:02:23;;;;;;;8.07;1.90;;;12.80;91.90;;;;;;4985700;28;20043;-71
2023/03/12 17:04:49;;;;;;;7.70;1.60;;;12.70;91.80;;;;;;4986019;28;20034;-69
2023/03/12 17:07:16;;;;;;;8.23;1.90;;;12.60;91.80;;;;;;4985255;28;20217;-71
2023/03/12 17:09:43;;;;;;;7.10;1.75;;;12.50;92.00;;;;;;4968768;28;20050;-77
2023/03/12 17:12:30;;;;;;;6.03;2.25;;;12.40;92.20;;;;;;4985446;28;20046;-71
2023/03/12 17:14:57;;;;;;;6.70;1.73;;;12.30;92.30;;;;;;4985907;28;20043;-71
2023/03/12 17:17:23;;;;;;;7.10;1.83;;;12.20;92.70;;;;;;4985875;28;20034;-72
2023/03/12 17:19:50;;;;;;;8.55;2.00;;;12.10;92.80;;;;;;4985595;28;20231;-71
2023/03/12 17:22:18;;;;;;;8.70;2.08;;;12.10;92.80;;;;;;4970836;28;20042;-73
2023/03/12 17:24:45;;;;;;;9.10;1.80;;;12.00;93.00;;;;;;4985533;28;20039;-70
2023/03/12 17:27:12;;;;;;;6.70;1.58;;;12.00;93.10;;;;;;4980198;28;20220;-72
2023/03/12 17:29:38;;;;;;;10.10;2.47;;;11.90;93.20;;;;;;4985514;28;20216;-71
2023/03/12 17:32:04;;;;;;;6.82;2.38;;;11.80;93.50;;;;;;4983890;28;20035;-72
2023/03/12 17:34:30;;;;;;;8.93;2.00;;;11.70;93.80;;;;;;4985371;28;20039;-72
2023/03/12 17:36:57;;;;;;;7.88;2.28;;;11.60;94.00;;;;;;4985051;28;20356;-71
2023/03/12 17:39:24;;;;;;;7.93;2.78;;;11.40;94.30;;;;;;4985650;28;20043;-70
2023/03/12 17:41:50;;;;;;;10.68;3.17;;;11.30;94.50;;;;;;4985351;28;20043;-71
2023/03/12 17:44:16;;;;;;;7.78;2.70;;;11.20;94.90;;;;;;4984514;28;20058;-70
2023/03/12 17:46:42;;;;;;;9.65;2.88;;;11.10;95.00;;;;;;4985343;28;20038;-70
2023/03/12 17:49:08;;;;;;;9.57;2.30;;;11.10;95.10;;;;;;4984596;28;20232;-70
2023/03/12 17:51:34;;;;;;;11.73;2.88;;;10.90;95.30;;;;;;4985030;28;20062;-71
2023/03/12 17:53:59;;;;;;;10.18;2.88;;;10.90;95.50;;;;;;4983922;28;20039;-71
2023/03/12 17:56:25;;;;;;;9.05;2.70;;;10.80;95.80;;;;;;4982670;28;20045;-70
2023/03/12 17:58:51;;;;;;;7.70;2.33;;;10.70;96.00;;;;;;4984938;28;20037;-69
2023/03/12 18:01:17;;;;;;;6.93;2.67;;;10.70;96.10;;;;;;4984450;28;20312;-72
2023/03/12 18:03:43;;;;;;;9.80;2.90;;;10.60;96.10;;;;;;4985085;28;20054;-71
2023/03/12 18:06:10;;;;;;;10.18;4.30;;;10.50;96.40;;;;;;4984801;28;20027;-69
2023/03/12 18:08:36;;;;;;;11.02;4.28;;;10.50;96.40;;;;;;4998219;28;20042;-69
2023/03/12 18:11:02;;;;;;;9.00;3.28;;;10.50;96.40;;;;;;4984499;28;20046;-71
2023/03/12 18:13:30;;;;;;;10.52;3.70;;;10.50;96.50;;;;;;4984861;28;20097;-71
2023/03/12 18:15:57;;;;;;;11.07;2.88;;;10.60;96.20;;;;;;4984844;28;20126;-71
2023/03/12 18:18:24;;;;;;;9.48;2.78;;;10.70;96.00;;;;;;4984083;28;20035;-72
2023/03/12 18:20:52;;;;;;;10.77;2.67;;;10.80;95.90;;;;;;4979059;28;20051;-70
2023/03/12 18:23:18;;;;;;;10.02;3.10;;;10.80;95.90;;;;;;4976305;28;20094;-71
2023/03/12 18:25:47;;;;;;;7.88;2.30;;;10.80;95.80;;;;;;4984675;28;20304;-73
2023/03/12 18:28:14;;;;;;;7.80;2.63;;;10.80;95.80;;;;;;4984045;28;20022;-73
2023/03/12 18:30:39;;;;;;;11.32;4.97;;;10.80;95.70;;;;;;4984301;28;20039;-72
2023/03/12 18:33:05;;;;;;;8.95;4.20;;;10.90;95.80;;;;;;4984186;28;20077;-71
2023/03/12 18:35:31;;;;;;;10.07;4.05;;;10.90;95.70;;;;;;4984299;28;20153;-71
2023/03/12 18:37:57;;;;;;;11.63;3.58;;;10.90;95.60;;;;;;4983512;28;20034;-69
2023/03/12 18:40:23;;;;;;;10.10;2.38;;;10.80;95.70;;;;;;4984049;28;20046;-70
2023/03/12 18:42:49;;;;;;;9.27;2.80;;;10.90;95.40;;;;;;4984503;28;20034;-71
2023/03/12 18:45:15;;;;;;;9.63;3.00;;;10.90;95.40;;;;;;4983986;28;20082;-74